sensor_id;sensor_type;location;lat;lon;timestamp;P1;durP1;ratioP1;P2;durP2;ratioP2
79790;SDS011;69278;52.220;5.172;2023-06-10T00:00:43;8.40;;;4.45;;
79790;SDS011;69278;52.220;5.172;2023-06-10T00:03:10;9.75;;;4.47;;
79790;SDS011;69278;52.220;5.172;2023-06-10T00:05:38;9.53;;;4.20;;
79790;SDS011;69278;52.220;5.172;2023-06-10T00:08:05;9.45;;;4.45;;
79790;SDS011;69278;52.220;5.172;2023-06-10T00:10:37;10.90;;;4.30;;
79790;SDS011;69278;52.220;5.172;2023-06-10T00:13:04;8.70;;;4.18;;
79790;SDS011;69278;52.220;5.172;2023-06-10T00:15:34;7.93;;;4.28;;
79790;SDS011;69278;52.220;5.172;2023-06-10T00:18:02;10.87;;;4.17;;
79790;SDS011;69278;52.220;5.172;2023-06-10T00:20:30;8.23;;;4.18;;
79790;SDS011;69278;52.220;5.172;2023-06-10T00:23:00;8.45;;;4.18;;
79790;SDS011;69278;52.220;5.172;2023-06-10T00:25:27;9.13;;;4.47;;
79790;SDS011;69278;52.220;5.172;2023-06-10T00:27:54;7.63;;;4.25;;
79790;SDS011;69278;52.220;5.172;2023-06-10T00:30:21;9.40;;;3.93;;
79790;SDS011;69278;52.220;5.172;2023-06-10T00:32:48;7.22;;;4.25;;
79790;SDS011;69278;52.220;5.172;2023-06-10T00:35:14;8.52;;;4.35;;
79790;SDS011;69278;52.220;5.172;2023-06-10T00:37:41;9.25;;;4.10;;
79790;SDS011;69278;52.220;5.172;2023-06-10T00:40:07;8.18;;;4.30;;
79790;SDS011;69278;52.220;5.172;2023-06-10T00:42:37;7.43;;;4.03;;
79790;SDS011;69278;52.220;5.172;2023-06-10T00:45:04;7.07;;;3.88;;
79790;SDS011;69278;52.220;5.172;2023-06-10T00:47:32;9.32;;;4.07;;
79790;SDS011;69278;52.220;5.172;2023-06-10T00:49:59;7.18;;;4.00;;
79790;SDS011;69278;52.220;5.172;2023-06-10T00:52:27;6.93;;;4.10;;
79790;SDS011;69278;52.220;5.172;2023-06-10T00:54:55;6.90;;;3.83;;
79790;SDS011;69278;52.220;5.172;2023-06-10T00:57:22;7.88;;;4.00;;
79790;SDS011;69278;52.220;5.172;2023-06-10T00:59:49;6.72;;;4.00;;
79790;SDS011;69278;52.220;5.172;2023-06-10T01:02:16;7.53;;;3.85;;
79790;SDS011;69278;52.220;5.172;2023-06-10T01:04:42;9.32;;;4.25;;
79790;SDS011;69278;52.220;5.172;2023-06-10T01:13:01;7.65;;;4.45;;
79790;SDS011;69278;52.220;5.172;2023-06-10T01:15:30;13.00;;;4.80;;
79790;SDS011;69278;52.220;5.172;2023-06-10T01:17:58;7.65;;;3.90;;
79790;SDS011;69278;52.220;5.172;2023-06-10T01:20:25;7.77;;;4.10;;
79790;SDS011;69278;52.220;5.172;2023-06-10T01:22:53;10.27;;;4.78;;
79790;SDS011;69278;52.220;5.172;2023-06-10T01:25:21;7.32;;;3.97;;
79790;SDS011;69278;52.220;5.172;2023-06-10T01:33:27;9.20;;;5.23;;
79790;SDS011;69278;52.220;5.172;2023-06-10T01:35:58;9.18;;;4.70;;
79790;SDS011;69278;52.220;5.172;2023-06-10T01:38:27;8.55;;;4.40;;
79790;SDS011;69278;52.220;5.172;2023-06-10T01:40:58;8.63;;;4.35;;
79790;SDS011;69278;52.220;5.172;2023-06-10T01:43:26;8.95;;;5.10;;
79790;SDS011;69278;52.220;5.172;2023-06-10T01:45:53;7.57;;;4.20;;
79790;SDS011;69278;52.220;5.172;2023-06-10T01:48:19;7.88;;;4.35;;
79790;SDS011;69278;52.220;5.172;2023-06-10T01:50:46;8.98;;;4.78;;
79790;SDS011;69278;52.220;5.172;2023-06-10T01:53:12;9.13;;;4.45;;
79790;SDS011;69278;52.220;5.172;2023-06-10T01:55:39;7.55;;;4.75;;
79790;SDS011;69278;52.220;5.172;2023-06-10T01:58:05;8.37;;;4.40;;
79790;SDS011;69278;52.220;5.172;2023-06-10T02:00:32;7.55;;;4.60;;
79790;SDS011;69278;52.220;5.172;2023-06-10T02:02:58;10.55;;;5.03;;
79790;SDS011;69278;52.220;5.172;2023-06-10T02:05:25;6.97;;;4.50;;
79790;SDS011;69278;52.220;5.172;2023-06-10T02:07:52;7.25;;;4.45;;
79790;SDS011;69278;52.220;5.172;2023-06-10T02:10:18;9.00;;;4.33;;
79790;SDS011;69278;52.220;5.172;2023-06-10T02:12:45;10.57;;;4.63;;
79790;SDS011;69278;52.220;5.172;2023-06-10T02:15:11;8.88;;;4.75;;
79790;SDS011;69278;52.220;5.172;2023-06-10T02:17:38;9.10;;;4.68;;
79790;SDS011;69278;52.220;5.172;2023-06-10T02:20:05;9.10;;;5.00;;
79790;SDS011;69278;52.220;5.172;2023-06-10T02:22:33;9.43;;;4.50;;
79790;SDS011;69278;52.220;5.172;2023-06-10T02:24:59;9.10;;;4.70;;
79790;SDS011;69278;52.220;5.172;2023-06-10T02:27:26;9.25;;;5.00;;
79790;SDS011;69278;52.220;5.172;2023-06-10T02:29:53;9.00;;;4.38;;
79790;SDS011;69278;52.220;5.172;2023-06-10T02:32:19;7.90;;;4.30;;
79790;SDS011;69278;52.220;5.172;2023-06-10T02:34:46;9.23;;;4.53;;
79790;SDS011;69278;52.220;5.172;2023-06-10T02:37:13;7.75;;;4.30;;
79790;SDS011;69278;52.220;5.172;2023-06-10T02:39:40;8.20;;;4.40;;
79790;SDS011;69278;52.220;5.172;2023-06-10T02:42:06;8.07;;;4.38;;
79790;SDS011;69278;52.220;5.172;2023-06-10T02:44:33;7.47;;;4.70;;
79790;SDS011;69278;52.220;5.172;2023-06-10T02:46:59;8.70;;;4.50;;
79790;SDS011;69278;52.220;5.172;2023-06-10T02:49:26;7.63;;;4.45;;
79790;SDS011;69278;52.220;5.172;2023-06-10T02:51:56;8.73;;;4.45;;
79790;SDS011;69278;52.220;5.172;2023-06-10T02:54:23;8.45;;;4.50;;
79790;SDS011;69278;52.220;5.172;2023-06-10T02:56:50;8.93;;;4.38;;
79790;SDS011;69278;52.220;5.172;2023-06-10T02:59:18;7.27;;;4.50;;
79790;SDS011;69278;52.220;5.172;2023-06-10T03:01:45;8.35;;;4.57;;
79790;SDS011;69278;52.220;5.172;2023-06-10T03:04:12;8.60;;;4.78;;
79790;SDS011;69278;52.220;5.172;2023-06-10T03:06:40;11.88;;;4.80;;
79790;SDS011;69278;52.220;5.172;2023-06-10T03:09:07;9.40;;;4.57;;
79790;SDS011;69278;52.220;5.172;2023-06-10T03:11:33;7.60;;;4.50;;
79790;SDS011;69278;52.220;5.172;2023-06-10T03:14:00;7.97;;;4.50;;
79790;SDS011;69278;52.220;5.172;2023-06-10T03:16:26;8.90;;;4.43;;
79790;SDS011;69278;52.220;5.172;2023-06-10T03:18:53;9.93;;;4.53;;
79790;SDS011;69278;52.220;5.172;2023-06-10T03:21:20;12.52;;;4.80;;
79790;SDS011;69278;52.220;5.172;2023-06-10T03:23:46;7.57;;;4.43;;
79790;SDS011;69278;52.220;5.172;2023-06-10T03:26:13;9.43;;;4.78;;
79790;SDS011;69278;52.220;5.172;2023-06-10T03:28:40;9.73;;;4.70;;
79790;SDS011;69278;52.220;5.172;2023-06-10T03:31:07;12.38;;;4.72;;
79790;SDS011;69278;52.220;5.172;2023-06-10T03:33:34;11.30;;;4.57;;
79790;SDS011;69278;52.220;5.172;2023-06-10T03:36:00;12.23;;;4.73;;
79790;SDS011;69278;52.220;5.172;2023-06-10T03:38:26;7.97;;;4.50;;
79790;SDS011;69278;52.220;5.172;2023-06-10T03:40:53;9.98;;;4.88;;
79790;SDS011;69278;52.220;5.172;2023-06-10T03:43:19;8.27;;;4.50;;
79790;SDS011;69278;52.220;5.172;2023-06-10T03:45:46;9.90;;;4.65;;
79790;SDS011;69278;52.220;5.172;2023-06-10T03:48:14;7.90;;;4.43;;
79790;SDS011;69278;52.220;5.172;2023-06-10T03:50:41;7.57;;;4.47;;
79790;SDS011;69278;52.220;5.172;2023-06-10T03:53:07;8.73;;;4.65;;
79790;SDS011;69278;52.220;5.172;2023-06-10T03:55:34;7.53;;;4.85;;
79790;SDS011;69278;52.220;5.172;2023-06-10T03:58:01;9.57;;;4.80;;
79790;SDS011;69278;52.220;5.172;2023-06-10T04:00:27;10.17;;;4.50;;
79790;SDS011;69278;52.220;5.172;2023-06-10T04:02:55;6.70;;;4.40;;
79790;SDS011;69278;52.220;5.172;2023-06-10T04:05:24;9.55;;;4.70;;
79790;SDS011;69278;52.220;5.172;2023-06-10T04:07:51;8.30;;;4.68;;
79790;SDS011;69278;52.220;5.172;2023-06-10T04:10:17;8.85;;;4.70;;
79790;SDS011;69278;52.220;5.172;2023-06-10T04:12:44;9.37;;;4.60;;
79790;SDS011;69278;52.220;5.172;2023-06-10T04:15:10;7.57;;;4.40;;
79790;SDS011;69278;52.220;5.172;2023-06-10T04:17:37;8.82;;;4.38;;
79790;SDS011;69278;52.220;5.172;2023-06-10T04:20:04;8.57;;;4.90;;
79790;SDS011;69278;52.220;5.172;2023-06-10T04:22:33;7.72;;;4.70;;
79790;SDS011;69278;52.220;5.172;2023-06-10T04:25:00;11.00;;;4.60;;
79790;SDS011;69278;52.220;5.172;2023-06-10T04:27:27;9.05;;;4.88;;
79790;SDS011;69278;52.220;5.172;2023-06-10T04:29:53;8.65;;;4.57;;
79790;SDS011;69278;52.220;5.172;2023-06-10T04:32:20;8.02;;;4.57;;
79790;SDS011;69278;52.220;5.172;2023-06-10T04:34:46;9.27;;;4.95;;
79790;SDS011;69278;52.220;5.172;2023-06-10T04:37:13;8.37;;;4.53;;
79790;SDS011;69278;52.220;5.172;2023-06-10T04:39:39;10.95;;;5.00;;
79790;SDS011;69278;52.220;5.172;2023-06-10T04:42:07;8.20;;;4.55;;
79790;SDS011;69278;52.220;5.172;2023-06-10T04:44:34;10.88;;;4.68;;
79790;SDS011;69278;52.220;5.172;2023-06-10T04:47:00;10.30;;;5.10;;
79790;SDS011;69278;52.220;5.172;2023-06-10T04:49:27;7.63;;;4.60;;
79790;SDS011;69278;52.220;5.172;2023-06-10T04:51:55;8.90;;;5.18;;
79790;SDS011;69278;52.220;5.172;2023-06-10T04:54:21;8.15;;;4.70;;
79790;SDS011;69278;52.220;5.172;2023-06-10T04:56:47;9.18;;;4.72;;
79790;SDS011;69278;52.220;5.172;2023-06-10T04:59:14;8.70;;;4.72;;
79790;SDS011;69278;52.220;5.172;2023-06-10T05:01:40;12.13;;;4.93;;
79790;SDS011;69278;52.220;5.172;2023-06-10T05:04:07;11.05;;;5.30;;
79790;SDS011;69278;52.220;5.172;2023-06-10T05:06:34;9.65;;;4.78;;
79790;SDS011;69278;52.220;5.172;2023-06-10T05:09:02;12.13;;;4.60;;
79790;SDS011;69278;52.220;5.172;2023-06-10T05:11:29;8.88;;;4.85;;
79790;SDS011;69278;52.220;5.172;2023-06-10T05:13:55;10.17;;;5.00;;
79790;SDS011;69278;52.220;5.172;2023-06-10T05:16:22;11.18;;;4.80;;
79790;SDS011;69278;52.220;5.172;2023-06-10T05:18:48;11.07;;;5.18;;
79790;SDS011;69278;52.220;5.172;2023-06-10T05:21:17;9.57;;;5.03;;
79790;SDS011;69278;52.220;5.172;2023-06-10T05:23:43;10.63;;;5.32;;
79790;SDS011;69278;52.220;5.172;2023-06-10T05:26:10;12.80;;;5.10;;
79790;SDS011;69278;52.220;5.172;2023-06-10T05:28:36;9.55;;;5.38;;
79790;SDS011;69278;52.220;5.172;2023-06-10T05:31:03;8.38;;;4.85;;
79790;SDS011;69278;52.220;5.172;2023-06-10T05:33:29;8.75;;;4.82;;
79790;SDS011;69278;52.220;5.172;2023-06-10T05:35:56;9.52;;;5.13;;
79790;SDS011;69278;52.220;5.172;2023-06-10T05:38:22;11.53;;;5.00;;
79790;SDS011;69278;52.220;5.172;2023-06-10T05:40:49;10.73;;;5.07;;
79790;SDS011;69278;52.220;5.172;2023-06-10T05:43:15;9.82;;;5.03;;
79790;SDS011;69278;52.220;5.172;2023-06-10T05:45:42;9.77;;;5.38;;
79790;SDS011;69278;52.220;5.172;2023-06-10T05:48:09;9.27;;;4.97;;
79790;SDS011;69278;52.220;5.172;2023-06-10T05:50:36;7.93;;;4.97;;
79790;SDS011;69278;52.220;5.172;2023-06-10T05:53:05;8.88;;;5.15;;
79790;SDS011;69278;52.220;5.172;2023-06-10T05:55:33;10.07;;;5.10;;
79790;SDS011;69278;52.220;5.172;2023-06-10T05:58:00;8.48;;;4.90;;
79790;SDS011;69278;52.220;5.172;2023-06-10T06:00:26;10.57;;;5.60;;
79790;SDS011;69278;52.220;5.172;2023-06-10T06:02:53;8.20;;;5.13;;
79790;SDS011;69278;52.220;5.172;2023-06-10T06:05:21;9.30;;;5.22;;
79790;SDS011;69278;52.220;5.172;2023-06-10T06:07:47;11.10;;;5.40;;
79790;SDS011;69278;52.220;5.172;2023-06-10T06:10:16;10.90;;;5.50;;
79790;SDS011;69278;52.220;5.172;2023-06-10T06:12:43;11.40;;;5.45;;
79790;SDS011;69278;52.220;5.172;2023-06-10T06:15:10;9.77;;;5.17;;
79790;SDS011;69278;52.220;5.172;2023-06-10T06:17:37;9.30;;;5.45;;
79790;SDS011;69278;52.220;5.172;2023-06-10T06:20:04;9.13;;;5.20;;
79790;SDS011;69278;52.220;5.172;2023-06-10T06:22:31;9.75;;;5.32;;
79790;SDS011;69278;52.220;5.172;2023-06-10T06:24:57;8.35;;;5.28;;
79790;SDS011;69278;52.220;5.172;2023-06-10T06:27:24;10.23;;;5.30;;
79790;SDS011;69278;52.220;5.172;2023-06-10T06:29:50;9.93;;;5.68;;
79790;SDS011;69278;52.220;5.172;2023-06-10T06:32:17;9.18;;;5.18;;
79790;SDS011;69278;52.220;5.172;2023-06-10T06:34:44;10.60;;;5.60;;
79790;SDS011;69278;52.220;5.172;2023-06-10T06:37:10;9.30;;;5.55;;
79790;SDS011;69278;52.220;5.172;2023-06-10T06:39:37;10.00;;;5.30;;
79790;SDS011;69278;52.220;5.172;2023-06-10T06:42:03;10.38;;;5.45;;
79790;SDS011;69278;52.220;5.172;2023-06-10T06:44:31;10.95;;;5.63;;
79790;SDS011;69278;52.220;5.172;2023-06-10T06:46:58;10.38;;;5.60;;
79790;SDS011;69278;52.220;5.172;2023-06-10T06:49:24;10.65;;;5.50;;
79790;SDS011;69278;52.220;5.172;2023-06-10T06:51:51;12.23;;;5.67;;
79790;SDS011;69278;52.220;5.172;2023-06-10T06:54:17;9.20;;;5.35;;
79790;SDS011;69278;52.220;5.172;2023-06-10T06:56:44;8.75;;;5.32;;
79790;SDS011;69278;52.220;5.172;2023-06-10T06:59:10;10.77;;;5.50;;
79790;SDS011;69278;52.220;5.172;2023-06-10T07:01:37;10.40;;;5.68;;
79790;SDS011;69278;52.220;5.172;2023-06-10T07:04:03;9.57;;;5.50;;
79790;SDS011;69278;52.220;5.172;2023-06-10T07:06:30;8.82;;;5.38;;
79790;SDS011;69278;52.220;5.172;2023-06-10T07:08:56;9.63;;;5.40;;
79790;SDS011;69278;52.220;5.172;2023-06-10T07:11:23;10.40;;;5.53;;
79790;SDS011;69278;52.220;5.172;2023-06-10T07:13:49;10.45;;;5.43;;
79790;SDS011;69278;52.220;5.172;2023-06-10T07:16:16;10.33;;;5.50;;
79790;SDS011;69278;52.220;5.172;2023-06-10T07:18:42;10.65;;;5.40;;
79790;SDS011;69278;52.220;5.172;2023-06-10T07:21:09;9.43;;;5.28;;
79790;SDS011;69278;52.220;5.172;2023-06-10T07:23:35;9.63;;;5.38;;
79790;SDS011;69278;52.220;5.172;2023-06-10T07:26:02;10.50;;;5.45;;
79790;SDS011;69278;52.220;5.172;2023-06-10T07:28:28;8.53;;;5.30;;
79790;SDS011;69278;52.220;5.172;2023-06-10T07:30:55;9.77;;;5.10;;
79790;SDS011;69278;52.220;5.172;2023-06-10T07:33:21;10.25;;;5.40;;
79790;SDS011;69278;52.220;5.172;2023-06-10T07:35:48;11.23;;;5.25;;
79790;SDS011;69278;52.220;5.172;2023-06-10T07:38:17;7.80;;;5.30;;
79790;SDS011;69278;52.220;5.172;2023-06-10T07:40:43;9.77;;;4.80;;
79790;SDS011;69278;52.220;5.172;2023-06-10T07:43:10;10.77;;;5.43;;
79790;SDS011;69278;52.220;5.172;2023-06-10T07:45:36;10.15;;;5.13;;
79790;SDS011;69278;52.220;5.172;2023-06-10T07:48:03;9.80;;;5.25;;
79790;SDS011;69278;52.220;5.172;2023-06-10T07:50:30;12.10;;;5.00;;
79790;SDS011;69278;52.220;5.172;2023-06-10T07:52:56;12.37;;;5.40;;
79790;SDS011;69278;52.220;5.172;2023-06-10T07:55:23;7.50;;;5.00;;
79790;SDS011;69278;52.220;5.172;2023-06-10T07:57:52;8.45;;;5.15;;
79790;SDS011;69278;52.220;5.172;2023-06-10T08:00:19;11.32;;;5.22;;
79790;SDS011;69278;52.220;5.172;2023-06-10T08:02:46;10.10;;;5.35;;
79790;SDS011;69278;52.220;5.172;2023-06-10T08:05:13;11.07;;;5.20;;
79790;SDS011;69278;52.220;5.172;2023-06-10T08:07:40;8.43;;;5.07;;
79790;SDS011;69278;52.220;5.172;2023-06-10T08:10:06;13.38;;;5.70;;
79790;SDS011;69278;52.220;5.172;2023-06-10T08:12:33;10.43;;;4.80;;
79790;SDS011;69278;52.220;5.172;2023-06-10T08:15:01;9.98;;;5.20;;
79790;SDS011;69278;52.220;5.172;2023-06-10T08:17:30;9.47;;;5.00;;
79790;SDS011;69278;52.220;5.172;2023-06-10T08:19:57;8.93;;;5.03;;
79790;SDS011;69278;52.220;5.172;2023-06-10T08:22:23;9.52;;;5.15;;
79790;SDS011;69278;52.220;5.172;2023-06-10T08:24:50;10.30;;;5.30;;
79790;SDS011;69278;52.220;5.172;2023-06-10T08:27:16;9.25;;;4.97;;
79790;SDS011;69278;52.220;5.172;2023-06-10T08:29:43;8.03;;;5.17;;
79790;SDS011;69278;52.220;5.172;2023-06-10T08:32:09;9.85;;;5.40;;
79790;SDS011;69278;52.220;5.172;2023-06-10T08:34:36;12.57;;;5.30;;
79790;SDS011;69278;52.220;5.172;2023-06-10T08:37:03;9.65;;;5.05;;
79790;SDS011;69278;52.220;5.172;2023-06-10T08:39:30;8.82;;;4.80;;
79790;SDS011;69278;52.220;5.172;2023-06-10T08:44:54;9.50;;;4.93;;
79790;SDS011;69278;52.220;5.172;2023-06-10T08:47:22;8.05;;;4.63;;
79790;SDS011;69278;52.220;5.172;2023-06-10T08:49:51;13.77;;;5.45;;
79790;SDS011;69278;52.220;5.172;2023-06-10T08:52:20;8.25;;;5.13;;
79790;SDS011;69278;52.220;5.172;2023-06-10T08:54:59;9.53;;;4.87;;
79790;SDS011;69278;52.220;5.172;2023-06-10T08:57:29;9.10;;;5.15;;
79790;SDS011;69278;52.220;5.172;2023-06-10T08:59:57;9.88;;;4.72;;
79790;SDS011;69278;52.220;5.172;2023-06-10T09:02:24;10.85;;;5.22;;
79790;SDS011;69278;52.220;5.172;2023-06-10T09:04:51;8.60;;;4.80;;
79790;SDS011;69278;52.220;5.172;2023-06-10T09:07:18;10.63;;;5.30;;
79790;SDS011;69278;52.220;5.172;2023-06-10T09:09:45;7.22;;;4.88;;
79790;SDS011;69278;52.220;5.172;2023-06-10T09:12:15;8.60;;;4.93;;
79790;SDS011;69278;52.220;5.172;2023-06-10T09:14:42;7.70;;;5.25;;
79790;SDS011;69278;52.220;5.172;2023-06-10T09:17:09;9.43;;;4.80;;
79790;SDS011;69278;52.220;5.172;2023-06-10T09:19:35;8.17;;;5.20;;
79790;SDS011;69278;52.220;5.172;2023-06-10T09:22:04;8.57;;;4.93;;
79790;SDS011;69278;52.220;5.172;2023-06-10T09:24:31;8.05;;;4.75;;
79790;SDS011;69278;52.220;5.172;2023-06-10T09:27:02;8.77;;;5.00;;
79790;SDS011;69278;52.220;5.172;2023-06-10T09:29:46;9.25;;;5.15;;
79790;SDS011;69278;52.220;5.172;2023-06-10T09:32:20;9.53;;;4.60;;
79790;SDS011;69278;52.220;5.172;2023-06-10T09:34:47;9.05;;;4.90;;
79790;SDS011;69278;52.220;5.172;2023-06-10T09:37:19;7.63;;;4.78;;
79790;SDS011;69278;52.220;5.172;2023-06-10T09:40:03;11.88;;;4.80;;
79790;SDS011;69278;52.220;5.172;2023-06-10T09:42:34;8.05;;;4.70;;
79790;SDS011;69278;52.220;5.172;2023-06-10T09:45:02;9.23;;;4.97;;
79790;SDS011;69278;52.220;5.172;2023-06-10T09:47:29;10.02;;;4.80;;
79790;SDS011;69278;52.220;5.172;2023-06-10T09:49:56;10.93;;;5.10;;
79790;SDS011;69278;52.220;5.172;2023-06-10T09:52:26;8.90;;;4.80;;
79790;SDS011;69278;52.220;5.172;2023-06-10T09:54:58;10.25;;;4.70;;
79790;SDS011;69278;52.220;5.172;2023-06-10T09:57:26;10.37;;;4.93;;
79790;SDS011;69278;52.220;5.172;2023-06-10T09:59:58;8.15;;;4.70;;
79790;SDS011;69278;52.220;5.172;2023-06-10T10:02:25;8.10;;;5.30;;
79790;SDS011;69278;52.220;5.172;2023-06-10T10:04:52;9.35;;;4.57;;
79790;SDS011;69278;52.220;5.172;2023-06-10T10:07:18;8.02;;;5.03;;
79790;SDS011;69278;52.220;5.172;2023-06-10T10:09:45;8.50;;;4.90;;
79790;SDS011;69278;52.220;5.172;2023-06-10T10:12:13;10.68;;;4.80;;
79790;SDS011;69278;52.220;5.172;2023-06-10T10:14:48;7.78;;;4.70;;
79790;SDS011;69278;52.220;5.172;2023-06-10T10:17:16;8.52;;;4.60;;
79790;SDS011;69278;52.220;5.172;2023-06-10T10:19:48;8.82;;;4.88;;
79790;SDS011;69278;52.220;5.172;2023-06-10T10:22:30;8.30;;;4.57;;
79790;SDS011;69278;52.220;5.172;2023-06-10T10:25:44;7.38;;;4.40;;
79790;SDS011;69278;52.220;5.172;2023-06-10T10:28:06;8.35;;;4.68;;
79790;SDS011;69278;52.220;5.172;2023-06-10T10:30:42;11.15;;;4.78;;
79790;SDS011;69278;52.220;5.172;2023-06-10T10:33:22;8.20;;;4.22;;
79790;SDS011;69278;52.220;5.172;2023-06-10T10:36:06;10.30;;;5.00;;
79790;SDS011;69278;52.220;5.172;2023-06-10T10:38:34;7.70;;;4.80;;
79790;SDS011;69278;52.220;5.172;2023-06-10T10:41:02;10.70;;;4.88;;
79790;SDS011;69278;52.220;5.172;2023-06-10T10:43:30;8.88;;;4.75;;
79790;SDS011;69278;52.220;5.172;2023-06-10T10:46:00;9.23;;;4.75;;
79790;SDS011;69278;52.220;5.172;2023-06-10T10:48:33;7.77;;;4.60;;
79790;SDS011;69278;52.220;5.172;2023-06-10T10:51:03;6.72;;;4.45;;
79790;SDS011;69278;52.220;5.172;2023-06-10T10:53:29;8.55;;;4.80;;
79790;SDS011;69278;52.220;5.172;2023-06-10T10:56:00;7.65;;;4.50;;
79790;SDS011;69278;52.220;5.172;2023-06-10T10:58:31;10.10;;;4.43;;
79790;SDS011;69278;52.220;5.172;2023-06-10T11:00:58;8.13;;;4.90;;
79790;SDS011;69278;52.220;5.172;2023-06-10T11:03:28;7.00;;;4.30;;
79790;SDS011;69278;52.220;5.172;2023-06-10T11:05:59;8.95;;;4.60;;
79790;SDS011;69278;52.220;5.172;2023-06-10T11:10:55;6.60;;;4.15;;
79790;SDS011;69278;52.220;5.172;2023-06-10T11:13:22;6.67;;;4.50;;
79790;SDS011;69278;52.220;5.172;2023-06-10T11:15:49;6.18;;;4.50;;
79790;SDS011;69278;52.220;5.172;2023-06-10T11:18:26;8.75;;;4.53;;
79790;SDS011;69278;52.220;5.172;2023-06-10T11:21:04;10.85;;;4.50;;
79790;SDS011;69278;52.220;5.172;2023-06-10T11:23:33;6.60;;;4.38;;
79790;SDS011;69278;52.220;5.172;2023-06-10T11:26:21;7.30;;;4.50;;
79790;SDS011;69278;52.220;5.172;2023-06-10T11:29:02;6.53;;;4.20;;
79790;SDS011;69278;52.220;5.172;2023-06-10T11:31:31;7.70;;;4.40;;
79790;SDS011;69278;52.220;5.172;2023-06-10T11:33:59;8.70;;;4.30;;
79790;SDS011;69278;52.220;5.172;2023-06-10T11:36:29;9.63;;;4.50;;
79790;SDS011;69278;52.220;5.172;2023-06-10T11:38:57;8.57;;;4.47;;
79790;SDS011;69278;52.220;5.172;2023-06-10T11:41:25;7.57;;;4.65;;
79790;SDS011;69278;52.220;5.172;2023-06-10T11:43:56;6.07;;;4.30;;
79790;SDS011;69278;52.220;5.172;2023-06-10T11:46:23;10.50;;;4.53;;
79790;SDS011;69278;52.220;5.172;2023-06-10T11:48:56;7.15;;;4.40;;
79790;SDS011;69278;52.220;5.172;2023-06-10T11:51:27;6.67;;;4.40;;
79790;SDS011;69278;52.220;5.172;2023-06-10T11:53:56;5.68;;;4.25;;
79790;SDS011;69278;52.220;5.172;2023-06-10T11:56:23;8.63;;;4.40;;
79790;SDS011;69278;52.220;5.172;2023-06-10T11:58:52;8.52;;;4.30;;
79790;SDS011;69278;52.220;5.172;2023-06-10T12:01:21;7.85;;;4.70;;
79790;SDS011;69278;52.220;5.172;2023-06-10T12:03:58;6.33;;;4.67;;
79790;SDS011;69278;52.220;5.172;2023-06-10T12:06:24;7.03;;;4.22;;
79790;SDS011;69278;52.220;5.172;2023-06-10T12:08:51;6.90;;;4.47;;
79790;SDS011;69278;52.220;5.172;2023-06-10T12:11:18;8.73;;;4.80;;
79790;SDS011;69278;52.220;5.172;2023-06-10T12:13:48;8.13;;;4.55;;
79790;SDS011;69278;52.220;5.172;2023-06-10T12:16:16;9.70;;;4.50;;
79790;SDS011;69278;52.220;5.172;2023-06-10T12:18:43;7.28;;;4.38;;
79790;SDS011;69278;52.220;5.172;2023-06-10T12:21:17;7.57;;;4.30;;
79790;SDS011;69278;52.220;5.172;2023-06-10T12:23:59;7.82;;;4.20;;
79790;SDS011;69278;52.220;5.172;2023-06-10T12:29:26;9.03;;;4.30;;
79790;SDS011;69278;52.220;5.172;2023-06-10T12:34:32;10.07;;;5.25;;
79790;SDS011;69278;52.220;5.172;2023-06-10T12:37:01;10.05;;;4.50;;
79790;SDS011;69278;52.220;5.172;2023-06-10T12:39:31;7.20;;;4.45;;
79790;SDS011;69278;52.220;5.172;2023-06-10T12:41:59;8.40;;;4.10;;
79790;SDS011;69278;52.220;5.172;2023-06-10T12:44:30;9.40;;;4.60;;
79790;SDS011;69278;52.220;5.172;2023-06-10T12:47:00;7.22;;;4.35;;
79790;SDS011;69278;52.220;5.172;2023-06-10T12:49:33;8.18;;;4.38;;
79790;SDS011;69278;52.220;5.172;2023-06-10T12:52:01;7.97;;;4.30;;
79790;SDS011;69278;52.220;5.172;2023-06-10T12:54:27;9.07;;;4.50;;
79790;SDS011;69278;52.220;5.172;2023-06-10T12:56:54;7.78;;;4.38;;
79790;SDS011;69278;52.220;5.172;2023-06-10T12:59:20;6.95;;;4.60;;
79790;SDS011;69278;52.220;5.172;2023-06-10T13:01:50;7.28;;;4.90;;
79790;SDS011;69278;52.220;5.172;2023-06-10T13:04:18;7.13;;;4.50;;
79790;SDS011;69278;52.220;5.172;2023-06-10T13:06:45;8.00;;;4.10;;
79790;SDS011;69278;52.220;5.172;2023-06-10T13:09:13;10.23;;;4.38;;
79790;SDS011;69278;52.220;5.172;2023-06-10T13:11:40;6.50;;;4.10;;
79790;SDS011;69278;52.220;5.172;2023-06-10T13:14:08;13.55;;;4.70;;
79790;SDS011;69278;52.220;5.172;2023-06-10T13:16:34;7.85;;;4.47;;
79790;SDS011;69278;52.220;5.172;2023-06-10T13:19:04;6.00;;;4.27;;
79790;SDS011;69278;52.220;5.172;2023-06-10T13:21:32;6.65;;;4.40;;
79790;SDS011;69278;52.220;5.172;2023-06-10T13:23:59;8.10;;;4.45;;
79790;SDS011;69278;52.220;5.172;2023-06-10T13:26:26;7.85;;;4.30;;
79790;SDS011;69278;52.220;5.172;2023-06-10T13:28:52;10.98;;;4.63;;
79790;SDS011;69278;52.220;5.172;2023-06-10T13:31:18;7.27;;;4.30;;
79790;SDS011;69278;52.220;5.172;2023-06-10T13:33:47;6.30;;;4.30;;
79790;SDS011;69278;52.220;5.172;2023-06-10T13:36:14;6.75;;;4.10;;
79790;SDS011;69278;52.220;5.172;2023-06-10T13:38:40;8.18;;;4.45;;
79790;SDS011;69278;52.220;5.172;2023-06-10T13:41:08;6.63;;;4.20;;
79790;SDS011;69278;52.220;5.172;2023-06-10T13:43:34;7.73;;;4.50;;
79790;SDS011;69278;52.220;5.172;2023-06-10T13:46:01;6.25;;;4.20;;
79790;SDS011;69278;52.220;5.172;2023-06-10T13:48:28;7.30;;;4.00;;
79790;SDS011;69278;52.220;5.172;2023-06-10T13:50:54;6.47;;;4.45;;
79790;SDS011;69278;52.220;5.172;2023-06-10T13:53:21;7.47;;;4.32;;
79790;SDS011;69278;52.220;5.172;2023-06-10T13:55:47;7.73;;;4.27;;
79790;SDS011;69278;52.220;5.172;2023-06-10T13:58:14;6.18;;;4.13;;
79790;SDS011;69278;52.220;5.172;2023-06-10T14:00:40;7.15;;;4.30;;
79790;SDS011;69278;52.220;5.172;2023-06-10T14:03:07;8.38;;;4.35;;
79790;SDS011;69278;52.220;5.172;2023-06-10T14:05:34;8.77;;;4.32;;
79790;SDS011;69278;52.220;5.172;2023-06-10T14:08:00;7.10;;;4.23;;
79790;SDS011;69278;52.220;5.172;2023-06-10T14:10:27;9.68;;;4.38;;
79790;SDS011;69278;52.220;5.172;2023-06-10T14:12:54;7.35;;;4.30;;
79790;SDS011;69278;52.220;5.172;2023-06-10T14:15:21;7.80;;;4.25;;
79790;SDS011;69278;52.220;5.172;2023-06-10T14:17:47;5.60;;;4.10;;
79790;SDS011;69278;52.220;5.172;2023-06-10T14:20:14;6.53;;;4.33;;
79790;SDS011;69278;52.220;5.172;2023-06-10T14:22:40;7.43;;;4.40;;
79790;SDS011;69278;52.220;5.172;2023-06-10T14:25:07;7.25;;;4.50;;
79790;SDS011;69278;52.220;5.172;2023-06-10T14:27:34;9.02;;;4.90;;
79790;SDS011;69278;52.220;5.172;2023-06-10T14:30:01;7.15;;;4.20;;
79790;SDS011;69278;52.220;5.172;2023-06-10T14:32:29;6.10;;;3.97;;
79790;SDS011;69278;52.220;5.172;2023-06-10T14:34:55;9.40;;;4.30;;
79790;SDS011;69278;52.220;5.172;2023-06-10T14:37:22;9.18;;;4.10;;
79790;SDS011;69278;52.220;5.172;2023-06-10T14:39:48;7.38;;;4.43;;
79790;SDS011;69278;52.220;5.172;2023-06-10T14:42:15;7.63;;;4.20;;
79790;SDS011;69278;52.220;5.172;2023-06-10T14:44:41;8.90;;;4.03;;
79790;SDS011;69278;52.220;5.172;2023-06-10T14:47:08;7.90;;;4.22;;
79790;SDS011;69278;52.220;5.172;2023-06-10T14:49:34;7.68;;;4.30;;
79790;SDS011;69278;52.220;5.172;2023-06-10T14:52:01;8.00;;;4.20;;
79790;SDS011;69278;52.220;5.172;2023-06-10T14:54:27;6.10;;;4.00;;
79790;SDS011;69278;52.220;5.172;2023-06-10T14:56:54;5.60;;;4.10;;
79790;SDS011;69278;52.220;5.172;2023-06-10T14:59:20;6.13;;;3.80;;
79790;SDS011;69278;52.220;5.172;2023-06-10T15:01:47;8.15;;;4.40;;
79790;SDS011;69278;52.220;5.172;2023-06-10T15:04:13;6.97;;;3.92;;
79790;SDS011;69278;52.220;5.172;2023-06-10T15:06:40;8.57;;;4.28;;
79790;SDS011;69278;52.220;5.172;2023-06-10T15:09:07;9.30;;;4.20;;
79790;SDS011;69278;52.220;5.172;2023-06-10T15:11:34;5.32;;;3.83;;